createdAt,value
2022-12-12T00:00:00.036Z,32.53
2022-12-12T00:02:28.976Z,28.50
2022-12-12T00:04:58.533Z,35.27
2022-12-12T00:07:32.172Z,31.63
2022-12-12T00:10:01.774Z,30.40
2022-12-12T00:12:31.007Z,29.50
2022-12-12T00:15:01.339Z,34.70
2022-12-12T00:17:30.103Z,27.40
2022-12-12T00:19:59.258Z,31.17
2022-12-12T00:22:30.022Z,33.80
2022-12-12T00:24:58.929Z,32.27
2022-12-12T00:27:28.797Z,27.93
2022-12-12T00:30:01.184Z,29.33
2022-12-12T00:32:32.400Z,31.10
2022-12-12T00:35:01.253Z,32.30
2022-12-12T00:37:30.099Z,29.43
2022-12-12T00:39:58.997Z,27.67
2022-12-12T00:42:28.969Z,22.70
2022-12-12T00:44:57.898Z,30.80
2022-12-12T00:47:26.997Z,34.17
2022-12-12T00:49:58.406Z,31.27
2022-12-12T00:52:27.435Z,29.70
2022-12-12T00:54:58.713Z,31.80
2022-12-12T00:57:27.858Z,22.73
2022-12-12T00:59:57.031Z,40.60
2022-12-12T01:02:28.481Z,34.10
2022-12-12T01:04:59.085Z,27.70
2022-12-12T01:07:29.069Z,32.93
2022-12-12T01:09:57.873Z,30.03
2022-12-12T01:12:28.449Z,27.37
2022-12-12T01:14:57.422Z,25.97
2022-12-12T01:17:26.433Z,30.90
2022-12-12T01:19:55.193Z,24.27
2022-12-12T01:22:25.335Z,28.20
2022-12-12T01:24:56.969Z,32.63
2022-12-12T01:27:26.360Z,28.40
2022-12-12T01:29:58.670Z,31.17
2022-12-12T01:32:30.194Z,23.17
2022-12-12T01:34:59.178Z,33.67
2022-12-12T01:37:29.412Z,28.27
2022-12-12T01:39:58.333Z,30.87
2022-12-12T01:42:27.592Z,29.10
2022-12-12T01:45:06.632Z,27.73
2022-12-12T01:47:35.312Z,33.97
2022-12-12T01:50:07.882Z,27.00
2022-12-12T01:52:44.427Z,28.17
2022-12-12T01:55:18.580Z,28.33
2022-12-12T01:57:50.466Z,29.23
2022-12-12T02:00:21.287Z,34.40
2022-12-12T02:02:50.178Z,27.77
2022-12-12T02:05:25.669Z,30.57
2022-12-12T02:07:56.953Z,32.67
2022-12-12T02:10:25.848Z,26.10
2022-12-12T02:13:01.621Z,27.57
2022-12-12T02:15:39.654Z,27.97
2022-12-12T02:18:17.879Z,18.47
2022-12-12T02:20:57.987Z,25.30
2022-12-12T02:24:06.232Z,31.30
2022-12-12T02:27:28.370Z,28.80
2022-12-12T02:30:17.921Z,29.23
2022-12-12T02:33:07.965Z,38.50
2022-12-12T02:35:49.440Z,30.17
2022-12-12T02:38:27.713Z,24.30
2022-12-12T02:41:09.452Z,32.53
2022-12-12T02:43:43.128Z,30.87
2022-12-12T02:46:19.090Z,27.60
2022-12-12T02:48:58.108Z,33.07
2022-12-12T02:51:28.980Z,27.70
2022-12-12T02:54:00.229Z,31.03
2022-12-12T02:56:49.697Z,28.10
2022-12-12T02:59:23.921Z,24.20
2022-12-12T03:02:15.130Z,26.10
2022-12-12T03:05:15.392Z,31.40
2022-12-12T03:08:00.176Z,27.40
2022-12-12T03:10:38.744Z,26.43
2022-12-12T03:13:14.825Z,28.40
2022-12-12T03:15:53.056Z,24.13
2022-12-12T03:18:27.750Z,24.87
2022-12-12T03:21:04.714Z,31.67
2022-12-12T03:23:39.281Z,34.40
2022-12-12T03:26:13.496Z,24.43
2022-12-12T03:28:46.541Z,28.93
2022-12-12T03:31:18.844Z,30.70
2022-12-12T03:33:51.986Z,30.00
2022-12-12T03:36:27.927Z,30.07
2022-12-12T03:39:01.185Z,28.23
2022-12-12T03:41:37.257Z,27.03
2022-12-12T03:44:12.989Z,30.43
2022-12-12T03:46:46.651Z,26.47
2022-12-12T03:49:19.506Z,33.60
2022-12-12T03:51:57.115Z,31.47
2022-12-12T03:54:32.601Z,26.30
2022-12-12T03:57:07.327Z,28.43
2022-12-12T03:59:41.270Z,27.33
2022-12-12T04:02:17.309Z,27.53
2022-12-12T04:04:53.655Z,28.50
2022-12-12T04:07:26.504Z,26.53
2022-12-12T04:10:13.021Z,21.17
2022-12-12T04:13:03.601Z,31.63
2022-12-12T04:15:47.505Z,25.67
2022-12-12T04:18:23.876Z,32.03
2022-12-12T04:21:18.498Z,29.63
2022-12-12T04:23:57.643Z,28.83
2022-12-12T04:26:42.408Z,28.17
2022-12-12T04:29:23.854Z,30.10
2022-12-12T04:31:58.316Z,32.10
2022-12-12T04:34:33.712Z,27.97
2022-12-12T04:37:06.938Z,23.80
2022-12-12T04:39:41.155Z,32.37
2022-12-12T04:42:14.311Z,25.53
2022-12-12T04:44:45.075Z,39.30
2022-12-12T04:47:16.814Z,24.23
2022-12-12T04:49:49.388Z,38.10
2022-12-12T04:52:21.299Z,25.03
2022-12-12T04:54:58.530Z,27.53
2022-12-12T04:57:32.497Z,27.43
2022-12-12T05:00:01.976Z,25.23
2022-12-12T05:02:36.201Z,32.33
2022-12-12T05:05:13.711Z,30.73
2022-12-12T05:07:46.087Z,30.57
2022-12-12T05:10:22.792Z,33.60
2022-12-12T05:12:53.334Z,29.53
2022-12-12T05:15:22.490Z,33.40
2022-12-12T05:17:57.886Z,24.13
2022-12-12T05:20:28.828Z,26.50
2022-12-12T05:22:57.933Z,34.17
2022-12-12T05:25:28.674Z,26.53
2022-12-12T05:27:57.831Z,29.20
2022-12-12T05:30:27.437Z,29.47
2022-12-12T05:32:56.644Z,30.97
2022-12-12T05:35:26.056Z,30.17
2022-12-12T05:37:54.972Z,24.17
2022-12-12T05:40:23.900Z,25.83
2022-12-12T05:42:54.601Z,28.77
2022-12-12T05:45:23.415Z,29.13
2022-12-12T05:47:52.324Z,27.53
2022-12-12T05:50:21.161Z,41.80
2022-12-12T05:52:49.814Z,38.60
2022-12-12T05:55:18.769Z,27.60
2022-12-12T05:57:47.448Z,35.17
2022-12-12T06:00:21.425Z,25.90
2022-12-12T06:02:51.006Z,34.10
2022-12-12T06:05:20.032Z,31.80
2022-12-12T06:07:48.922Z,32.83
2022-12-12T06:10:17.841Z,31.93
2022-12-12T06:12:47.386Z,31.23
2022-12-12T06:15:16.387Z,34.60
2022-12-12T06:17:46.559Z,38.40
2022-12-12T06:20:15.397Z,24.77
2022-12-12T06:22:45.922Z,26.50
2022-12-12T06:25:16.716Z,31.63
2022-12-12T06:27:45.548Z,30.33
2022-12-12T06:30:15.121Z,34.33
2022-12-12T06:32:44.046Z,28.23
2022-12-12T06:35:15.341Z,30.70
2022-12-12T06:37:45.163Z,33.00
2022-12-12T06:40:14.709Z,30.43
2022-12-12T06:42:48.183Z,29.10
2022-12-12T06:45:18.012Z,30.87
2022-12-12T06:47:53.273Z,27.63
2022-12-12T06:50:24.122Z,29.00
2022-12-12T06:52:55.979Z,26.47
2022-12-12T06:55:32.609Z,29.70
2022-12-12T06:58:05.169Z,27.93
2022-12-12T07:00:34.696Z,27.13
2022-12-12T07:03:03.843Z,27.97
2022-12-12T07:05:34.795Z,34.63
2022-12-12T07:08:06.920Z,33.63
2022-12-12T07:10:38.305Z,26.90
2022-12-12T07:13:08.023Z,33.73
2022-12-12T07:15:37.054Z,33.80
2022-12-12T07:18:09.153Z,29.97
2022-12-12T07:20:43.859Z,25.13
2022-12-12T07:23:13.446Z,36.27
2022-12-12T07:25:44.658Z,37.93
2022-12-12T07:28:15.062Z,33.30
2022-12-12T07:30:45.712Z,34.53
2022-12-12T07:33:16.724Z,32.77
2022-12-12T07:35:47.566Z,37.80
2022-12-12T07:38:16.616Z,22.97
2022-12-12T07:40:45.498Z,28.53
2022-12-12T07:43:18.106Z,29.47
2022-12-12T07:45:47.653Z,32.70
2022-12-12T07:48:17.717Z,25.97
2022-12-12T07:50:49.481Z,25.17
2022-12-12T07:53:19.846Z,29.40
2022-12-12T07:55:49.792Z,34.27
2022-12-12T07:58:18.632Z,34.07
2022-12-12T08:00:49.027Z,27.13
2022-12-12T08:03:22.540Z,24.00
2022-12-12T08:06:00.010Z,39.80
2022-12-12T08:08:29.673Z,30.80
2022-12-12T08:11:01.373Z,37.97
2022-12-12T08:16:33.307Z,33.77
2022-12-12T08:19:03.805Z,35.60
2022-12-12T08:21:51.639Z,25.13
2022-12-12T08:24:21.410Z,29.93
2022-12-12T08:26:53.563Z,29.43
2022-12-12T08:29:25.476Z,31.43
2022-12-12T08:31:55.020Z,31.03
2022-12-12T08:34:23.796Z,34.17
2022-12-12T08:36:55.147Z,31.80
2022-12-12T08:39:23.993Z,34.30
2022-12-12T08:41:53.352Z,32.17
2022-12-12T08:44:22.489Z,34.50
2022-12-12T08:46:51.272Z,35.53
2022-12-12T08:49:20.077Z,36.40
2022-12-12T08:51:48.796Z,41.80
2022-12-12T08:54:20.885Z,36.87
2022-12-12T08:56:49.451Z,39.30
2022-12-12T08:59:18.249Z,40.07
2022-12-12T09:01:46.964Z,33.00
2022-12-12T09:04:15.666Z,32.10
2022-12-12T09:06:45.792Z,31.60
2022-12-12T09:09:14.469Z,39.63
2022-12-12T09:11:45.395Z,37.00
2022-12-12T09:14:14.072Z,40.77
2022-12-12T09:16:42.900Z,37.07
2022-12-12T09:19:11.702Z,32.57
2022-12-12T09:21:40.369Z,36.07
2022-12-12T09:24:10.113Z,34.90
2022-12-12T09:26:38.855Z,36.07
2022-12-12T09:29:09.030Z,50.70
2022-12-12T09:31:37.641Z,41.77
2022-12-12T09:34:06.298Z,32.67
2022-12-12T09:36:34.894Z,36.47
2022-12-12T09:39:03.604Z,34.87
2022-12-12T09:41:32.780Z,34.53
2022-12-12T09:44:04.272Z,36.20
2022-12-12T09:46:38.748Z,36.93
2022-12-12T09:49:16.732Z,39.33
2022-12-12T09:51:49.121Z,32.90
2022-12-12T09:54:20.636Z,41.23
2022-12-12T09:57:12.455Z,30.30
2022-12-12T09:59:45.619Z,32.23
2022-12-12T10:02:41.922Z,36.63
2022-12-12T10:05:23.146Z,43.93
2022-12-12T10:08:01.312Z,33.53
2022-12-12T10:10:33.152Z,35.13
2022-12-12T10:13:04.172Z,37.97
2022-12-12T10:15:36.580Z,43.20
2022-12-12T10:18:10.964Z,42.60
2022-12-12T10:20:46.463Z,41.80
2022-12-12T10:23:20.814Z,37.50
2022-12-12T10:25:53.779Z,33.47
2022-12-12T10:28:26.125Z,51.97
2022-12-12T10:31:10.725Z,31.37
2022-12-12T10:33:57.552Z,37.50
2022-12-12T10:36:38.332Z,33.73
2022-12-12T10:39:20.235Z,40.33
2022-12-12T10:41:56.464Z,35.73
2022-12-12T10:44:47.627Z,28.87
2022-12-12T10:47:16.437Z,33.83
2022-12-12T10:49:46.495Z,29.43
2022-12-12T10:52:19.239Z,37.57
2022-12-12T10:54:50.381Z,31.57
2022-12-12T10:57:24.223Z,32.60
2022-12-12T10:59:55.555Z,31.33
2022-12-12T11:02:35.985Z,29.93
2022-12-12T11:05:15.804Z,31.47
2022-12-12T11:07:47.339Z,34.77
2022-12-12T11:10:26.843Z,32.87
2022-12-12T11:13:01.810Z,33.83
2022-12-12T11:15:51.852Z,27.73
2022-12-12T11:18:22.696Z,29.83
2022-12-12T11:21:06.556Z,34.27
2022-12-12T11:23:36.996Z,28.40
2022-12-12T11:26:12.981Z,26.60
2022-12-12T11:28:42.638Z,31.27
2022-12-12T11:31:16.720Z,33.87
2022-12-12T11:33:49.840Z,32.63
2022-12-12T11:36:23.459Z,32.93
2022-12-12T11:38:54.797Z,25.90
2022-12-12T11:41:23.662Z,33.50
2022-12-12T11:43:59.911Z,28.47
2022-12-12T11:46:30.880Z,27.17
2022-12-12T11:49:02.718Z,32.40
2022-12-12T11:51:35.637Z,27.13
2022-12-12T11:54:06.405Z,37.30
2022-12-12T11:56:51.605Z,36.73
2022-12-12T11:59:50.457Z,32.33
2022-12-12T12:03:03.614Z,32.30
2022-12-12T12:05:44.653Z,31.80
2022-12-12T12:08:27.199Z,26.47
2022-12-12T12:11:08.430Z,31.90
2022-12-12T12:14:08.201Z,35.03
2022-12-12T12:16:46.883Z,35.83
2022-12-12T12:19:23.324Z,25.63
2022-12-12T12:22:02.247Z,27.30
2022-12-12T12:25:04.614Z,25.83
2022-12-12T12:27:43.016Z,31.43
2022-12-12T12:30:23.823Z,29.30
2022-12-12T12:33:29.326Z,30.93
2022-12-12T12:36:08.847Z,18.17
2022-12-12T12:38:57.783Z,31.47
2022-12-12T12:42:05.177Z,26.07
2022-12-12T12:44:44.450Z,30.90
2022-12-12T12:47:26.600Z,29.03
2022-12-12T12:50:00.182Z,31.97
2022-12-12T12:52:35.595Z,29.33
2022-12-12T12:55:04.622Z,35.57
2022-12-12T12:57:37.817Z,20.37
2022-12-12T13:00:10.684Z,32.47
2022-12-12T13:02:49.962Z,29.70
2022-12-12T13:05:24.742Z,28.97
2022-12-12T13:07:59.851Z,26.83
2022-12-12T13:10:30.690Z,29.60
2022-12-12T13:13:07.391Z,25.67
2022-12-12T13:15:39.876Z,30.50
2022-12-12T13:18:13.890Z,32.47
2022-12-12T13:20:45.397Z,26.67
2022-12-12T13:23:26.877Z,27.97
2022-12-12T13:26:01.868Z,30.77
2022-12-12T13:28:37.827Z,25.20
2022-12-12T13:31:42.987Z,23.77
2022-12-12T13:34:14.261Z,32.77
2022-12-12T13:36:46.787Z,25.20
2022-12-12T13:39:27.598Z,28.97
2022-12-12T13:42:00.501Z,26.50
2022-12-12T13:44:39.552Z,26.50
2022-12-12T13:47:34.371Z,30.97
2022-12-12T13:50:07.736Z,30.03
2022-12-12T13:52:41.129Z,33.20
2022-12-12T13:55:24.337Z,31.00
2022-12-12T13:58:17.524Z,27.50
2022-12-12T14:00:47.941Z,28.67
2022-12-12T14:03:31.827Z,34.87
2022-12-12T14:06:12.158Z,31.77
2022-12-12T14:08:49.614Z,35.77
2022-12-12T14:11:34.156Z,27.77
2022-12-12T14:14:24.490Z,31.73
2022-12-12T14:16:56.940Z,25.00
2022-12-12T14:19:30.842Z,25.73
2022-12-12T14:21:59.590Z,27.87
2022-12-12T14:24:56.926Z,23.80
2022-12-12T14:28:05.201Z,22.73
2022-12-12T14:30:48.767Z,24.67
2022-12-12T14:33:50.287Z,27.37
2022-12-12T14:36:58.434Z,27.70
2022-12-12T14:39:46.004Z,24.30
2022-12-12T14:42:26.363Z,31.33
2022-12-12T14:44:55.005Z,27.73
2022-12-12T14:47:23.609Z,32.73
2022-12-12T14:50:12.148Z,27.17
2022-12-12T14:52:42.403Z,33.30
2022-12-12T14:55:17.052Z,34.80
2022-12-12T14:57:50.050Z,29.20
2022-12-12T15:00:20.277Z,40.93
2022-12-12T15:02:51.653Z,25.63
2022-12-12T15:05:21.839Z,33.07
2022-12-12T15:07:59.713Z,35.40
2022-12-12T15:10:30.881Z,34.57
2022-12-12T15:13:21.100Z,25.93
2022-12-12T15:15:51.911Z,28.23
2022-12-12T15:18:22.140Z,37.00
2022-12-12T15:20:57.832Z,34.13
2022-12-12T15:23:26.616Z,40.90
2022-12-12T15:25:56.820Z,31.00
2022-12-12T15:28:26.387Z,29.63
2022-12-12T15:30:56.116Z,34.03
2022-12-12T15:33:27.530Z,28.23
2022-12-12T15:36:02.706Z,40.07
2022-12-12T15:38:32.708Z,39.03
2022-12-12T15:41:06.668Z,32.83
2022-12-12T15:43:40.874Z,34.97
2022-12-12T15:46:15.372Z,37.07
2022-12-12T15:48:44.439Z,30.20
2022-12-12T15:51:24.413Z,33.93
2022-12-12T15:53:55.561Z,39.53
2022-12-12T15:56:26.104Z,38.60
2022-12-12T15:59:15.268Z,34.33
2022-12-12T16:01:44.396Z,33.07
2022-12-12T16:04:25.818Z,29.20
2022-12-12T16:06:55.908Z,22.50
2022-12-12T16:09:26.324Z,35.80
2022-12-12T16:11:56.458Z,17.77
2022-12-12T16:14:41.292Z,34.87
2022-12-12T16:17:14.178Z,33.00
2022-12-12T16:19:47.404Z,37.77
2022-12-12T16:22:28.765Z,39.07
2022-12-12T16:25:11.328Z,37.87
2022-12-12T16:27:40.179Z,35.13
2022-12-12T16:30:10.827Z,36.80
2022-12-12T16:32:39.772Z,43.73
2022-12-12T16:35:09.040Z,38.07
2022-12-12T16:37:39.116Z,38.67
2022-12-12T16:40:09.345Z,34.60
2022-12-12T16:42:38.064Z,29.43
2022-12-12T16:45:07.765Z,24.93
2022-12-12T16:47:36.415Z,35.70
2022-12-12T16:50:05.991Z,42.03
2022-12-12T16:52:34.626Z,32.17
2022-12-12T16:55:14.128Z,29.77
2022-12-12T16:57:42.751Z,28.30
2022-12-12T17:00:13.607Z,35.13
2022-12-12T17:02:42.557Z,38.73
2022-12-12T17:05:16.673Z,45.17
2022-12-12T17:07:45.325Z,34.87
2022-12-12T17:10:15.618Z,45.13
2022-12-12T17:12:44.434Z,26.60
2022-12-12T17:15:18.165Z,37.50
2022-12-12T17:17:47.405Z,37.13
2022-12-12T17:20:16.494Z,36.50
2022-12-12T17:22:45.747Z,30.47
2022-12-12T17:25:16.231Z,33.10
2022-12-12T17:27:44.968Z,41.40
2022-12-12T17:30:15.033Z,38.30
2022-12-12T17:35:27.038Z,37.00
2022-12-12T17:37:55.662Z,41.43
2022-12-12T17:40:25.842Z,42.57
2022-12-12T17:42:54.557Z,39.67
2022-12-12T17:45:23.275Z,42.37
2022-12-12T17:47:51.921Z,40.33
2022-12-12T17:50:20.675Z,40.83
2022-12-12T17:52:49.655Z,48.77
2022-12-12T17:55:53.975Z,49.17
2022-12-12T17:58:11.138Z,31.83
2022-12-12T18:00:39.912Z,35.03
2022-12-12T18:03:08.702Z,40.67
2022-12-12T18:05:37.336Z,32.17
2022-12-12T18:08:06.676Z,34.47
2022-12-12T18:10:35.472Z,31.97
2022-12-12T18:13:04.161Z,42.00
2022-12-12T18:15:34.239Z,31.97
2022-12-12T18:18:02.789Z,39.57
2022-12-12T18:20:31.678Z,33.07
2022-12-12T18:23:00.440Z,36.53
2022-12-12T18:25:29.114Z,46.13
2022-12-12T18:27:58.808Z,32.13
2022-12-12T18:30:27.389Z,39.90
2022-12-12T18:33:02.796Z,33.60
2022-12-12T18:35:32.310Z,33.47
2022-12-12T18:38:01.413Z,33.00
2022-12-12T18:40:30.393Z,45.47
2022-12-12T18:43:00.310Z,29.67
2022-12-12T18:45:29.027Z,35.27
2022-12-12T18:47:59.278Z,38.80
2022-12-12T18:50:29.405Z,35.67
2022-12-12T18:53:01.081Z,32.33
2022-12-12T18:55:30.944Z,33.23
2022-12-12T18:58:01.172Z,36.73
2022-12-12T19:00:30.077Z,37.73
2022-12-12T19:03:00.507Z,35.30
2022-12-12T19:05:32.340Z,49.30
2022-12-12T19:08:01.527Z,44.50
2022-12-12T19:10:30.525Z,45.07
2022-12-12T19:12:59.277Z,48.67
2022-12-12T19:15:28.296Z,57.00
2022-12-12T19:17:57.373Z,42.37
2022-12-12T19:20:31.670Z,53.67
2022-12-12T19:23:04.627Z,42.87
2022-12-12T19:25:40.891Z,51.07
2022-12-12T19:28:15.378Z,46.43
2022-12-12T19:30:44.929Z,47.73
2022-12-12T19:33:16.269Z,53.10
2022-12-12T19:35:46.649Z,50.07
2022-12-12T19:38:21.252Z,45.50
2022-12-12T19:40:53.551Z,44.10
2022-12-12T19:43:24.880Z,48.67
2022-12-12T19:46:03.583Z,59.30
2022-12-12T19:48:33.603Z,38.30
2022-12-12T19:51:08.838Z,49.10
2022-12-12T19:53:39.236Z,47.53
2022-12-12T19:56:12.425Z,40.87
2022-12-12T19:58:41.710Z,63.43
2022-12-12T20:01:13.483Z,48.93
2022-12-12T20:03:49.172Z,38.40
2022-12-12T20:06:19.590Z,50.43
2022-12-12T20:08:49.563Z,50.90
2022-12-12T20:11:22.376Z,40.13
2022-12-12T20:13:53.988Z,49.93
2022-12-12T20:16:26.467Z,43.87
2022-12-12T20:18:56.308Z,50.37
2022-12-12T20:21:59.891Z,40.77
2022-12-12T20:24:26.023Z,38.90
2022-12-12T20:26:56.198Z,40.43
2022-12-12T20:29:25.045Z,52.92
2022-12-12T20:31:55.056Z,43.30
2022-12-12T20:34:25.077Z,52.23
2022-12-12T20:37:00.170Z,60.53
2022-12-12T20:39:29.785Z,53.13
2022-12-12T20:42:01.119Z,47.03
2022-12-12T20:44:33.783Z,50.77
2022-12-12T20:47:02.873Z,43.67
2022-12-12T20:49:32.513Z,47.90
2022-12-12T20:52:07.863Z,56.17
2022-12-12T20:54:37.954Z,60.53
2022-12-12T20:57:07.634Z,53.87
2022-12-12T20:59:36.902Z,58.53
2022-12-12T21:02:08.102Z,48.13
2022-12-12T21:04:39.874Z,52.10
2022-12-12T21:07:15.442Z,46.20
2022-12-12T21:09:47.441Z,48.53
2022-12-12T21:12:16.750Z,41.40
2022-12-12T21:14:45.866Z,45.80
2022-12-12T21:17:18.757Z,42.20
2022-12-12T21:19:52.126Z,54.20
2022-12-12T21:22:22.779Z,50.23
2022-12-12T21:24:52.335Z,43.33
2022-12-12T21:27:25.770Z,47.37
2022-12-12T21:29:55.588Z,45.50
2022-12-12T21:32:24.722Z,39.43
2022-12-12T21:34:58.356Z,46.43
2022-12-12T21:37:34.670Z,35.67
2022-12-12T21:40:09.135Z,48.40
2022-12-12T21:42:38.442Z,37.77
2022-12-12T21:45:11.703Z,43.67
2022-12-12T21:47:40.796Z,42.80
2022-12-12T21:50:12.163Z,49.03
2022-12-12T21:53:12.729Z,48.07
2022-12-12T21:55:42.367Z,44.63
2022-12-12T21:58:11.505Z,48.30
2022-12-12T22:00:56.256Z,45.20
2022-12-12T22:03:35.483Z,57.23
2022-12-12T22:06:12.244Z,38.67
2022-12-12T22:08:46.741Z,42.47
2022-12-12T22:11:33.938Z,40.07
2022-12-12T22:14:06.676Z,36.80
2022-12-12T22:16:36.723Z,53.53
2022-12-12T22:19:07.553Z,30.23
2022-12-12T22:21:37.561Z,47.43
2022-12-12T22:24:13.461Z,41.07
2022-12-12T22:26:45.649Z,35.73
2022-12-12T22:29:16.531Z,42.73
2022-12-12T22:31:52.252Z,39.23
2022-12-12T22:34:28.256Z,46.90
2022-12-12T22:36:57.535Z,42.40
2022-12-12T22:39:35.837Z,31.80
2022-12-12T22:42:04.685Z,46.37
2022-12-12T22:44:38.050Z,46.23
2022-12-12T22:47:07.432Z,42.23
2022-12-12T22:49:38.788Z,40.97
2022-12-12T22:52:07.868Z,49.17
2022-12-12T22:54:38.774Z,37.97
2022-12-12T22:57:07.648Z,41.67
2022-12-12T22:59:36.554Z,44.90
2022-12-12T23:02:08.528Z,41.13
2022-12-12T23:04:37.727Z,45.43
2022-12-12T23:07:06.941Z,44.60
2022-12-12T23:09:37.425Z,40.87
2022-12-12T23:12:06.765Z,46.30
2022-12-12T23:14:35.532Z,35.87
2022-12-12T23:17:10.325Z,40.20
2022-12-12T23:19:43.065Z,46.10
2022-12-12T23:22:13.933Z,39.57
2022-12-12T23:24:44.828Z,40.67
2022-12-12T23:27:14.866Z,39.33
2022-12-12T23:29:44.490Z,41.73
2022-12-12T23:32:13.581Z,40.10
2022-12-12T23:34:42.636Z,33.63
2022-12-12T23:37:14.164Z,41.07
2022-12-12T23:39:51.395Z,42.60
2022-12-12T23:42:38.925Z,35.67
2022-12-12T23:45:09.094Z,51.43
2022-12-12T23:47:38.326Z,46.60
2022-12-12T23:50:08.127Z,48.93
2022-12-12T23:52:37.337Z,41.57
2022-12-12T23:55:10.640Z,52.47
2022-12-12T23:57:39.555Z,40.83
